Air Navigation Services of Czech Republic
Airport: LKVO Updated:  22.11.2017 10:58:39  UTC
 METAR LKVO 22.11. 11:00 ...
METAR LKVO 221100Z 26012KT 9999 SCT032 10/05 Q1012=